createdAt,value
2018-12-31T00:00:12.874Z,8.73
2018-12-31T00:01:12.892Z,8.71
2018-12-31T00:02:13.209Z,8.70
2018-12-31T00:03:12.921Z,8.82
2018-12-31T00:04:12.936Z,8.71
2018-12-31T00:05:12.956Z,8.79
2018-12-31T00:06:12.972Z,8.82
2018-12-31T00:07:12.987Z,8.82
2018-12-31T00:08:13.003Z,8.82
2018-12-31T00:09:13.023Z,8.88
2018-12-31T00:10:13.040Z,8.82
2018-12-31T00:11:13.056Z,8.82
2018-12-31T00:12:13.073Z,8.88
2018-12-31T00:13:13.087Z,8.84
2018-12-31T00:14:13.106Z,8.76
2018-12-31T00:15:13.124Z,8.84
2018-12-31T00:16:13.138Z,8.79
2018-12-31T00:17:13.153Z,8.92
2018-12-31T00:18:13.175Z,8.82
2018-12-31T00:19:13.187Z,8.76
2018-12-31T00:20:13.203Z,8.82
2018-12-31T00:21:13.223Z,8.91
2018-12-31T00:22:13.236Z,8.79
2018-12-31T00:23:13.257Z,8.87
2018-12-31T00:24:13.275Z,8.95
2018-12-31T00:25:13.288Z,8.82
2018-12-31T00:26:13.304Z,8.84
2018-12-31T00:27:13.323Z,8.89
2018-12-31T00:28:13.336Z,8.81
2018-12-31T00:29:13.354Z,8.84
2018-12-31T00:30:13.373Z,8.81
2018-12-31T00:31:13.386Z,8.84
2018-12-31T00:32:13.403Z,8.85
2018-12-31T00:33:13.426Z,8.91
2018-12-31T00:34:13.438Z,8.84
2018-12-31T00:35:13.453Z,8.85
2018-12-31T00:36:13.471Z,8.91
2018-12-31T00:37:13.489Z,8.87
2018-12-31T00:38:13.505Z,8.87
2018-12-31T00:39:13.520Z,8.94
2018-12-31T00:40:13.539Z,8.92
2018-12-31T00:41:13.558Z,8.78
2018-12-31T00:42:13.570Z,8.95
2018-12-31T00:43:13.590Z,8.92
2018-12-31T00:44:13.604Z,8.94
2018-12-31T00:45:13.622Z,8.88
2018-12-31T00:46:13.637Z,8.91
2018-12-31T00:47:13.653Z,8.85
2018-12-31T00:48:13.671Z,8.91
2018-12-31T00:49:13.688Z,8.95
2018-12-31T00:50:13.715Z,8.85
2018-12-31T00:51:13.721Z,8.92
2018-12-31T00:52:13.736Z,8.94
2018-12-31T00:53:13.757Z,8.88
2018-12-31T00:54:13.775Z,8.92
2018-12-31T00:55:13.891Z,8.78
2018-12-31T00:56:13.804Z,8.94
2018-12-31T00:57:13.829Z,8.81
2018-12-31T00:58:13.839Z,8.92
2018-12-31T00:59:13.856Z,8.99
2018-12-31T01:00:13.873Z,8.95
2018-12-31T01:01:13.888Z,8.92
2018-12-31T01:02:13.907Z,8.95
2018-12-31T01:03:13.924Z,8.89
2018-12-31T01:04:13.941Z,8.91
2018-12-31T01:05:13.960Z,8.95
2018-12-31T01:06:13.975Z,8.89
2018-12-31T01:07:13.989Z,8.94
2018-12-31T01:08:14.008Z,8.91
2018-12-31T01:09:14.024Z,8.87
2018-12-31T01:10:14.042Z,8.91
2018-12-31T01:11:14.058Z,8.94
2018-12-31T01:12:14.073Z,8.92
2018-12-31T01:13:14.090Z,8.87
2018-12-31T01:14:14.107Z,8.91
2018-12-31T01:15:14.124Z,8.99
2018-12-31T01:16:14.149Z,8.94
2018-12-31T01:17:14.159Z,8.99
2018-12-31T01:18:14.176Z,8.88
2018-12-31T01:19:14.193Z,8.94
2018-12-31T01:20:14.208Z,8.95
2018-12-31T01:21:14.225Z,9.00
2018-12-31T01:22:14.244Z,9.02
2018-12-31T01:23:14.259Z,8.95
2018-12-31T01:24:14.278Z,8.97
2018-12-31T01:25:14.292Z,9.00
2018-12-31T01:26:14.312Z,9.02
2018-12-31T01:27:14.329Z,9.02
2018-12-31T01:28:14.345Z,9.02
2018-12-31T01:29:14.363Z,8.97
2018-12-31T01:30:14.377Z,9.00
2018-12-31T01:31:14.396Z,8.99
2018-12-31T01:32:14.412Z,9.02
2018-12-31T01:33:14.430Z,8.95
2018-12-31T01:34:14.444Z,9.02
2018-12-31T01:35:14.463Z,9.02
2018-12-31T01:36:14.481Z,8.99
2018-12-31T01:37:14.495Z,8.99
2018-12-31T01:38:14.512Z,8.97
2018-12-31T01:39:14.535Z,9.03
2018-12-31T01:40:14.547Z,9.00
2018-12-31T01:41:14.564Z,8.99
2018-12-31T01:42:14.598Z,9.06
2018-12-31T01:43:14.614Z,9.04
2018-12-31T01:44:14.613Z,9.11
2018-12-31T01:45:14.634Z,9.10
2018-12-31T01:46:14.650Z,9.11
2018-12-31T01:47:14.664Z,9.11
2018-12-31T01:48:14.683Z,9.14
2018-12-31T01:49:14.697Z,9.18
2018-12-31T01:50:14.715Z,9.11
2018-12-31T01:51:14.733Z,9.04
2018-12-31T01:52:14.752Z,9.13
2018-12-31T01:53:14.764Z,9.18
2018-12-31T01:54:14.781Z,9.21
2018-12-31T01:55:14.800Z,9.13
2018-12-31T01:56:14.816Z,9.08
2018-12-31T01:57:14.831Z,9.16
2018-12-31T01:58:14.851Z,9.03
2018-12-31T01:59:14.864Z,9.13
2018-12-31T02:00:14.881Z,9.13
2018-12-31T02:01:15.263Z,9.16
2018-12-31T02:02:14.915Z,9.10
2018-12-31T02:03:14.932Z,9.21
2018-12-31T02:04:14.950Z,9.21
2018-12-31T02:05:14.967Z,9.19
2018-12-31T02:06:14.982Z,9.22
2018-12-31T02:07:15.002Z,9.21
2018-12-31T02:08:15.022Z,9.21
2018-12-31T02:09:15.035Z,9.22
2018-12-31T02:10:15.049Z,9.14
2018-12-31T02:11:15.069Z,9.10
2018-12-31T02:12:15.084Z,9.22
2018-12-31T02:13:15.102Z,9.22
2018-12-31T02:14:15.118Z,9.22
2018-12-31T02:15:15.133Z,9.22
2018-12-31T02:16:15.152Z,9.19
2018-12-31T02:17:15.166Z,9.26
2018-12-31T02:18:15.186Z,9.23
2018-12-31T02:19:15.203Z,9.22
2018-12-31T02:20:15.216Z,9.22
2018-12-31T02:21:15.233Z,9.23
2018-12-31T02:22:15.251Z,9.22
2018-12-31T02:23:15.268Z,9.26
2018-12-31T02:24:15.286Z,9.21
2018-12-31T02:25:15.303Z,9.19
2018-12-31T02:26:15.321Z,9.26
2018-12-31T02:27:15.339Z,9.22
2018-12-31T02:28:15.354Z,9.31
2018-12-31T02:29:15.371Z,9.31
2018-12-31T02:30:15.392Z,9.29
2018-12-31T02:31:15.407Z,9.26
2018-12-31T02:32:15.420Z,9.26
2018-12-31T02:33:15.526Z,9.36
2018-12-31T02:34:15.454Z,9.28
2018-12-31T02:35:15.475Z,9.32
2018-12-31T02:36:15.491Z,9.29
2018-12-31T02:37:15.508Z,9.23
2018-12-31T02:38:15.524Z,9.28
2018-12-31T02:39:15.539Z,9.32
2018-12-31T02:40:15.555Z,9.28
2018-12-31T02:41:15.576Z,9.34
2018-12-31T02:42:15.592Z,9.32
2018-12-31T02:43:15.608Z,9.23
2018-12-31T02:44:15.626Z,9.28
2018-12-31T02:45:15.642Z,9.28
2018-12-31T02:46:15.660Z,9.26
2018-12-31T02:47:15.680Z,9.32
2018-12-31T02:48:15.694Z,9.28
2018-12-31T02:49:15.708Z,9.34
2018-12-31T02:50:15.731Z,9.32
2018-12-31T02:51:15.744Z,9.36
2018-12-31T02:52:15.760Z,9.44
2018-12-31T02:53:15.780Z,9.36
2018-12-31T02:54:15.798Z,9.37
2018-12-31T02:55:15.812Z,9.32
2018-12-31T02:56:15.828Z,9.40
2018-12-31T02:57:15.845Z,9.41
2018-12-31T02:58:15.865Z,9.36
2018-12-31T02:59:15.882Z,9.32
2018-12-31T03:00:15.896Z,9.40
2018-12-31T03:01:16.416Z,9.41
2018-12-31T03:02:15.930Z,9.40
2018-12-31T03:03:15.953Z,9.32
2018-12-31T03:04:15.968Z,9.28
2018-12-31T03:05:15.981Z,9.32
2018-12-31T03:06:16.002Z,9.39
2018-12-31T03:07:16.016Z,9.39
2018-12-31T03:08:16.033Z,9.31
2018-12-31T03:09:16.050Z,9.40
2018-12-31T03:10:16.068Z,9.41
2018-12-31T03:11:16.086Z,9.43
2018-12-31T03:12:16.100Z,9.44
2018-12-31T03:13:16.123Z,9.40
2018-12-31T03:14:16.137Z,9.43
2018-12-31T03:15:16.157Z,9.40
2018-12-31T03:16:16.169Z,9.46
2018-12-31T03:17:16.189Z,9.46
2018-12-31T03:18:16.203Z,9.48
2018-12-31T03:19:16.222Z,9.43
2018-12-31T03:20:16.236Z,9.44
2018-12-31T03:21:16.253Z,9.46
2018-12-31T03:22:16.274Z,9.43
2018-12-31T03:23:16.293Z,9.46
2018-12-31T03:24:16.307Z,9.40
2018-12-31T03:25:16.323Z,9.44
2018-12-31T03:26:16.339Z,9.47
2018-12-31T03:27:16.361Z,9.46
2018-12-31T03:28:16.373Z,9.41
2018-12-31T03:29:16.391Z,9.50
2018-12-31T03:30:16.411Z,9.43
2018-12-31T03:31:16.426Z,9.46
2018-12-31T03:32:16.447Z,9.43
2018-12-31T03:33:16.456Z,9.54
2018-12-31T03:34:16.475Z,9.48
2018-12-31T03:35:16.489Z,9.48
2018-12-31T03:36:16.508Z,9.46
2018-12-31T03:37:16.526Z,9.48
2018-12-31T03:38:16.540Z,9.48
2018-12-31T03:39:16.560Z,9.48
2018-12-31T03:40:16.580Z,9.48
2018-12-31T03:41:16.594Z,9.48
2018-12-31T03:42:16.608Z,9.48
2018-12-31T03:43:16.628Z,9.43
2018-12-31T03:44:16.641Z,9.48
2018-12-31T03:45:16.661Z,9.44
2018-12-31T03:46:16.676Z,9.44
2018-12-31T03:47:16.695Z,9.47
2018-12-31T03:48:16.712Z,9.54
2018-12-31T03:49:16.735Z,9.61
2018-12-31T03:50:16.744Z,9.54
2018-12-31T03:51:16.765Z,9.51
2018-12-31T03:52:16.786Z,9.59
2018-12-31T03:53:16.798Z,9.61
2018-12-31T03:54:16.813Z,9.58
2018-12-31T03:55:16.833Z,9.62
2018-12-31T03:56:16.851Z,9.59
2018-12-31T03:57:16.868Z,9.59
2018-12-31T03:58:16.927Z,9.58
2018-12-31T03:59:16.901Z,9.56
2018-12-31T04:00:17.003Z,9.54
2018-12-31T04:01:16.931Z,9.56
2018-12-31T04:02:16.950Z,9.61
2018-12-31T04:03:16.968Z,9.61
2018-12-31T04:04:16.982Z,9.58
2018-12-31T04:05:17.008Z,9.56
2018-12-31T04:06:17.017Z,9.56
2018-12-31T04:07:17.035Z,9.54
2018-12-31T04:08:17.053Z,9.58
2018-12-31T04:09:17.073Z,9.56
2018-12-31T04:10:17.087Z,9.56
2018-12-31T04:11:17.105Z,9.68
2018-12-31T04:12:17.122Z,9.69
2018-12-31T04:13:17.136Z,9.61
2018-12-31T04:14:17.156Z,9.68
2018-12-31T04:15:17.174Z,9.66
2018-12-31T04:16:17.190Z,9.72
2018-12-31T04:17:17.209Z,9.68
2018-12-31T04:18:17.226Z,9.66
2018-12-31T04:19:17.239Z,9.72
2018-12-31T04:20:17.258Z,9.68
2018-12-31T04:21:17.274Z,9.65
2018-12-31T04:22:17.294Z,9.77
2018-12-31T04:23:17.309Z,9.69
2018-12-31T04:24:17.325Z,9.77
2018-12-31T04:25:17.340Z,9.69
2018-12-31T04:26:17.359Z,9.79
2018-12-31T04:27:17.377Z,9.74
2018-12-31T04:28:17.394Z,9.65
2018-12-31T04:29:17.408Z,9.66
2018-12-31T04:30:17.429Z,9.73
2018-12-31T04:31:17.443Z,9.68
2018-12-31T04:32:17.462Z,9.69
2018-12-31T04:33:17.476Z,9.64
2018-12-31T04:34:17.500Z,9.66
2018-12-31T04:35:17.511Z,9.68
2018-12-31T04:36:17.528Z,9.68
2018-12-31T04:37:17.546Z,9.66
2018-12-31T04:38:17.565Z,9.72
2018-12-31T04:39:17.581Z,9.73
2018-12-31T04:40:17.595Z,9.66
2018-12-31T04:41:17.612Z,9.68
2018-12-31T04:42:17.632Z,9.68
2018-12-31T04:43:17.649Z,9.68
2018-12-31T04:44:17.673Z,9.65
2018-12-31T04:45:17.688Z,9.68
2018-12-31T04:46:17.698Z,9.65
2018-12-31T04:47:17.715Z,9.64
2018-12-31T04:48:17.734Z,9.68
2018-12-31T04:49:17.749Z,9.69
2018-12-31T04:50:17.767Z,9.68
2018-12-31T04:51:17.788Z,9.73
2018-12-31T04:52:17.804Z,9.69
2018-12-31T04:53:17.820Z,9.69
2018-12-31T04:54:17.837Z,9.72
2018-12-31T04:55:17.855Z,9.68
2018-12-31T04:56:17.870Z,9.73
2018-12-31T04:57:17.893Z,9.66
2018-12-31T04:58:22.985Z,9.68
2018-12-31T04:59:17.925Z,9.68
2018-12-31T05:00:17.938Z,9.68
2018-12-31T05:01:17.958Z,9.65
2018-12-31T05:02:17.972Z,9.66
2018-12-31T05:03:17.992Z,9.66
2018-12-31T05:04:18.008Z,9.72
2018-12-31T05:05:18.026Z,9.68
2018-12-31T05:06:18.042Z,9.66
2018-12-31T05:07:18.059Z,9.72
2018-12-31T05:08:18.078Z,9.61
2018-12-31T05:09:18.094Z,9.68
2018-12-31T05:10:18.114Z,9.72
2018-12-31T05:11:18.132Z,9.65
2018-12-31T05:12:18.143Z,9.73
2018-12-31T05:13:18.161Z,9.74
2018-12-31T05:14:18.179Z,9.76
2018-12-31T05:15:18.197Z,9.80
2018-12-31T05:16:18.213Z,9.66
2018-12-31T05:17:18.231Z,9.73
2018-12-31T05:18:18.255Z,9.74
2018-12-31T05:19:18.266Z,9.69
2018-12-31T05:20:18.284Z,9.69
2018-12-31T05:21:18.303Z,9.66
2018-12-31T05:22:18.317Z,9.65
2018-12-31T05:23:18.335Z,9.73
2018-12-31T05:24:18.351Z,9.76
2018-12-31T05:25:18.372Z,9.79
2018-12-31T05:26:18.388Z,9.68
2018-12-31T05:27:18.404Z,9.66
2018-12-31T05:28:18.420Z,9.64
2018-12-31T05:29:18.438Z,9.66
2018-12-31T05:30:18.458Z,9.69
2018-12-31T05:31:18.475Z,9.66
2018-12-31T05:32:18.494Z,9.80
2018-12-31T05:33:18.507Z,9.76
2018-12-31T05:34:18.524Z,9.74
2018-12-31T05:35:18.549Z,9.68
2018-12-31T05:36:18.561Z,9.73
2018-12-31T05:37:18.578Z,9.72
2018-12-31T05:38:18.593Z,9.77
2018-12-31T05:39:18.613Z,9.84
2018-12-31T05:40:18.630Z,9.76
2018-12-31T05:41:18.648Z,9.86
2018-12-31T05:42:18.663Z,9.84
2018-12-31T05:43:18.688Z,9.82
2018-12-31T05:44:18.696Z,9.87
2018-12-31T05:45:18.716Z,9.77
2018-12-31T05:46:18.735Z,9.80
2018-12-31T05:47:18.753Z,9.86
2018-12-31T05:48:18.767Z,9.86
2018-12-31T05:49:18.782Z,9.89
2018-12-31T05:50:18.807Z,9.83
2018-12-31T05:51:18.822Z,9.83
2018-12-31T05:52:18.837Z,9.83
2018-12-31T05:53:18.855Z,9.80
2018-12-31T05:54:18.869Z,9.80
2018-12-31T05:55:18.888Z,9.84
2018-12-31T05:56:18.905Z,9.79
2018-12-31T05:57:18.920Z,9.80
2018-12-31T05:58:18.943Z,9.83
2018-12-31T05:59:18.957Z,9.80
2018-12-31T06:00:18.974Z,9.82
2018-12-31T06:01:18.994Z,9.84
2018-12-31T06:02:19.008Z,9.82
2018-12-31T06:03:19.026Z,9.83
2018-12-31T06:04:19.043Z,9.79
2018-12-31T06:05:19.058Z,9.87
2018-12-31T06:06:19.075Z,9.80
2018-12-31T06:07:19.093Z,9.87
2018-12-31T06:08:19.137Z,9.94
2018-12-31T06:09:19.131Z,9.82
2018-12-31T06:10:19.150Z,9.83
2018-12-31T06:11:19.162Z,9.82
2018-12-31T06:12:19.184Z,9.89
2018-12-31T06:13:19.199Z,9.89
2018-12-31T06:14:19.215Z,9.87
2018-12-31T06:15:19.233Z,9.91
2018-12-31T06:16:19.251Z,9.87
2018-12-31T06:17:19.367Z,9.91
2018-12-31T06:18:19.282Z,9.89
2018-12-31T06:19:19.300Z,9.89
2018-12-31T06:20:19.317Z,9.89
2018-12-31T06:21:19.334Z,9.89
2018-12-31T06:22:19.353Z,9.87
2018-12-31T06:23:19.369Z,9.86
2018-12-31T06:24:19.385Z,9.87
2018-12-31T06:25:19.404Z,9.91
2018-12-31T06:26:19.422Z,9.91
2018-12-31T06:27:19.438Z,9.95
2018-12-31T06:28:19.456Z,9.89
2018-12-31T06:29:19.471Z,9.92
2018-12-31T06:30:19.492Z,9.89
2018-12-31T06:31:19.508Z,9.91
2018-12-31T06:32:19.523Z,9.91
2018-12-31T06:33:19.540Z,9.94
2018-12-31T06:34:19.560Z,9.94
2018-12-31T06:35:19.577Z,9.92
2018-12-31T06:36:19.597Z,9.91
2018-12-31T06:37:19.609Z,9.94
2018-12-31T06:38:19.626Z,9.98
2018-12-31T06:39:19.648Z,9.97
2018-12-31T06:40:19.660Z,9.97
2018-12-31T06:41:19.680Z,9.99
2018-12-31T06:42:19.698Z,9.98
2018-12-31T06:43:19.712Z,9.99
2018-12-31T06:44:19.729Z,9.97
2018-12-31T06:45:19.754Z,9.91
2018-12-31T06:46:19.764Z,9.87
2018-12-31T06:47:19.781Z,10.04
2018-12-31T06:48:19.797Z,9.92
2018-12-31T06:49:19.817Z,9.91
2018-12-31T06:50:19.836Z,9.98
2018-12-31T06:51:19.855Z,9.92
2018-12-31T06:52:19.870Z,9.97
2018-12-31T06:53:19.885Z,9.92
2018-12-31T06:54:19.903Z,9.91
2018-12-31T06:55:19.918Z,10.04
2018-12-31T06:56:19.938Z,9.98
2018-12-31T06:57:19.957Z,9.99
2018-12-31T06:58:19.971Z,9.97
2018-12-31T06:59:19.991Z,9.98
2018-12-31T07:00:20.003Z,9.98
2018-12-31T07:01:20.020Z,9.98
2018-12-31T07:02:20.041Z,9.94
2018-12-31T07:03:20.055Z,9.99
2018-12-31T07:04:20.072Z,9.99
2018-12-31T07:05:20.092Z,10.04
2018-12-31T07:06:20.108Z,10.05
2018-12-31T07:07:20.124Z,10.10
2018-12-31T07:08:20.142Z,10.07
2018-12-31T07:09:20.159Z,10.10
2018-12-31T07:10:20.178Z,10.12
2018-12-31T07:11:20.192Z,10.10
2018-12-31T07:12:20.210Z,10.05
2018-12-31T07:13:20.225Z,10.04
2018-12-31T07:14:20.246Z,10.07
2018-12-31T07:15:20.260Z,10.10
2018-12-31T07:16:20.281Z,10.10
2018-12-31T07:17:20.294Z,10.09
2018-12-31T07:18:20.313Z,10.07
2018-12-31T07:19:20.328Z,10.07
2018-12-31T07:20:20.347Z,10.02
2018-12-31T07:21:20.365Z,10.04
2018-12-31T07:22:20.383Z,10.07
2018-12-31T07:23:20.397Z,10.05
2018-12-31T07:24:20.416Z,10.09
2018-12-31T07:25:20.430Z,9.97
2018-12-31T07:26:20.450Z,10.12
2018-12-31T07:27:20.465Z,10.10
2018-12-31T07:28:20.494Z,10.13
2018-12-31T07:29:20.501Z,10.10
2018-12-31T07:30:20.516Z,10.09
2018-12-31T07:31:20.536Z,10.07
2018-12-31T07:32:20.552Z,10.09
2018-12-31T07:33:20.566Z,10.07
2018-12-31T07:34:20.587Z,10.07
2018-12-31T07:35:20.602Z,10.10
2018-12-31T07:36:20.619Z,10.07
2018-12-31T07:37:20.634Z,10.09
2018-12-31T07:38:20.652Z,10.09
2018-12-31T07:39:20.669Z,9.99
2018-12-31T07:40:20.685Z,10.04
2018-12-31T07:41:20.704Z,10.12
2018-12-31T07:42:20.720Z,10.12
2018-12-31T07:43:20.737Z,10.12
2018-12-31T07:44:20.755Z,10.12
2018-12-31T07:45:20.771Z,10.10
2018-12-31T07:46:20.790Z,10.05
2018-12-31T07:47:20.805Z,10.13
2018-12-31T07:48:20.823Z,10.12
2018-12-31T07:49:20.839Z,10.07
2018-12-31T07:50:20.859Z,10.09
2018-12-31T07:51:20.875Z,10.05
2018-12-31T07:52:20.891Z,10.10
2018-12-31T07:53:20.906Z,10.09
2018-12-31T07:54:20.923Z,10.05
2018-12-31T07:55:20.946Z,10.07
2018-12-31T07:56:20.959Z,10.07
2018-12-31T07:57:20.974Z,10.05
2018-12-31T07:58:20.993Z,10.09
2018-12-31T07:59:21.010Z,10.05
2018-12-31T08:00:21.027Z,10.15
2018-12-31T08:01:21.042Z,10.12
2018-12-31T08:02:21.062Z,10.13
2018-12-31T08:03:21.077Z,10.13
2018-12-31T08:04:21.093Z,10.09
2018-12-31T08:05:21.109Z,10.07
2018-12-31T08:06:21.126Z,10.22
2018-12-31T08:07:21.149Z,10.19
2018-12-31T08:08:21.160Z,10.10
2018-12-31T08:09:21.179Z,10.26
2018-12-31T08:10:21.194Z,10.16
2018-12-31T08:11:21.212Z,10.15
2018-12-31T08:12:21.231Z,10.12
2018-12-31T08:13:21.246Z,10.15
2018-12-31T08:14:21.262Z,10.15
2018-12-31T08:15:21.282Z,10.19
2018-12-31T08:16:21.298Z,10.17
2018-12-31T08:17:21.315Z,10.23
2018-12-31T08:18:21.336Z,10.20
2018-12-31T08:19:21.349Z,10.31
2018-12-31T08:20:21.372Z,10.20
2018-12-31T08:21:21.383Z,10.23
2018-12-31T08:22:21.401Z,10.23
2018-12-31T08:23:21.419Z,10.20
2018-12-31T08:24:21.434Z,10.23
2018-12-31T08:25:21.452Z,10.16
2018-12-31T08:26:21.472Z,10.17
2018-12-31T08:27:21.486Z,10.17
2018-12-31T08:28:21.502Z,10.25
2018-12-31T08:29:21.522Z,10.23
2018-12-31T08:30:21.537Z,10.33
2018-12-31T08:31:21.554Z,10.31
2018-12-31T08:32:21.571Z,10.23
2018-12-31T08:33:21.589Z,10.26
2018-12-31T08:34:21.604Z,10.23
2018-12-31T08:35:21.623Z,10.26
2018-12-31T08:36:21.885Z,10.30
2018-12-31T08:37:21.654Z,10.30
2018-12-31T08:38:21.671Z,10.31
2018-12-31T08:39:21.690Z,10.33
2018-12-31T08:40:21.712Z,10.31
2018-12-31T08:41:21.729Z,10.33
2018-12-31T08:42:21.743Z,10.25
2018-12-31T08:43:21.759Z,10.33
2018-12-31T08:44:21.776Z,10.28
2018-12-31T08:45:21.794Z,10.30
2018-12-31T08:46:21.808Z,10.34
2018-12-31T08:47:21.827Z,10.35
2018-12-31T08:48:21.845Z,10.42
2018-12-31T08:49:21.862Z,10.33
2018-12-31T08:50:21.879Z,10.28
2018-12-31T08:51:21.897Z,10.19
2018-12-31T08:52:21.914Z,10.30
2018-12-31T08:53:21.932Z,10.35
2018-12-31T08:54:21.949Z,10.23
2018-12-31T08:55:21.965Z,10.23
2018-12-31T08:56:21.982Z,10.26
2018-12-31T08:57:21.997Z,10.30
2018-12-31T08:58:22.014Z,10.35
2018-12-31T08:59:22.034Z,10.23
2018-12-31T09:00:22.049Z,10.30
2018-12-31T09:01:22.066Z,10.26
2018-12-31T09:02:22.085Z,10.30
2018-12-31T09:03:22.103Z,10.23
2018-12-31T09:04:22.119Z,10.37
2018-12-31T09:05:22.135Z,10.33
2018-12-31T09:06:22.152Z,10.23
2018-12-31T09:07:22.172Z,10.23
2018-12-31T09:08:22.186Z,10.34
2018-12-31T09:09:22.209Z,10.26
2018-12-31T09:10:22.221Z,10.35
2018-12-31T09:11:22.241Z,10.34
2018-12-31T09:12:22.256Z,10.25
2018-12-31T09:13:22.273Z,10.23
2018-12-31T09:14:22.295Z,10.26
2018-12-31T09:15:22.317Z,10.30
2018-12-31T09:16:22.325Z,10.30
2018-12-31T09:17:22.343Z,10.33
2018-12-31T09:18:22.362Z,10.31
2018-12-31T09:19:22.379Z,10.31
2018-12-31T09:20:22.393Z,10.28
2018-12-31T09:21:22.414Z,10.28
2018-12-31T09:22:22.428Z,10.33
2018-12-31T09:23:22.448Z,10.30
2018-12-31T09:24:22.464Z,10.42
2018-12-31T09:25:22.479Z,10.40
2018-12-31T09:26:22.499Z,10.44
2018-12-31T09:27:22.523Z,10.37
2018-12-31T09:28:22.534Z,10.33
2018-12-31T09:29:22.549Z,10.28
2018-12-31T09:30:22.566Z,10.34
2018-12-31T09:31:22.586Z,10.31
2018-12-31T09:32:22.600Z,10.37
2018-12-31T09:33:22.620Z,10.33
2018-12-31T09:34:22.635Z,10.34
2018-12-31T09:35:22.652Z,10.44
2018-12-31T09:36:22.676Z,10.41
2018-12-31T09:37:22.689Z,10.41
2018-12-31T09:38:22.704Z,10.42
2018-12-31T09:39:22.721Z,10.37
2018-12-31T09:40:22.741Z,10.30
2018-12-31T09:41:22.758Z,10.44
2018-12-31T09:42:22.776Z,10.37
2018-12-31T09:43:22.791Z,10.31
2018-12-31T09:44:22.810Z,10.34
2018-12-31T09:45:22.828Z,10.38
2018-12-31T09:46:22.846Z,10.46
2018-12-31T09:47:22.863Z,10.42
2018-12-31T09:48:22.877Z,10.31
2018-12-31T09:49:22.897Z,10.41
2018-12-31T09:50:22.915Z,10.30
2018-12-31T09:51:22.990Z,10.48
2018-12-31T09:52:22.952Z,10.44
2018-12-31T09:53:22.966Z,10.38
2018-12-31T09:54:22.982Z,10.37
2018-12-31T09:55:22.999Z,10.33
2018-12-31T09:56:23.017Z,10.38
2018-12-31T09:57:23.035Z,10.33
2018-12-31T09:58:23.053Z,10.37
2018-12-31T09:59:23.072Z,10.34
2018-12-31T10:00:23.085Z,10.46
2018-12-31T10:01:23.102Z,10.37
2018-12-31T10:02:23.120Z,10.42
2018-12-31T10:03:23.195Z,10.53
2018-12-31T10:04:23.158Z,10.49
2018-12-31T10:05:23.174Z,10.49
2018-12-31T10:06:23.189Z,10.46
2018-12-31T10:07:23.207Z,10.42
2018-12-31T10:08:23.225Z,10.48
2018-12-31T10:09:23.245Z,10.54
2018-12-31T10:10:23.261Z,10.59
2018-12-31T10:11:23.276Z,10.60
2018-12-31T10:12:23.295Z,10.60
2018-12-31T10:13:23.311Z,10.59
2018-12-31T10:14:23.329Z,10.57
2018-12-31T10:15:23.347Z,10.57
2018-12-31T10:16:23.365Z,10.53
2018-12-31T10:17:23.383Z,10.48
2018-12-31T10:18:23.398Z,10.57
2018-12-31T10:19:23.417Z,10.61
2018-12-31T10:20:23.432Z,10.61
2018-12-31T10:21:23.454Z,10.49
2018-12-31T10:22:23.471Z,10.59
2018-12-31T10:23:23.486Z,10.56
2018-12-31T10:24:23.506Z,10.60
2018-12-31T10:25:23.523Z,10.60
2018-12-31T10:26:23.541Z,10.63
2018-12-31T10:27:23.556Z,10.63
2018-12-31T10:28:23.572Z,10.59
2018-12-31T10:29:23.594Z,10.53
2018-12-31T10:30:23.608Z,10.49
2018-12-31T10:31:23.629Z,10.59
2018-12-31T10:32:23.645Z,10.59
2018-12-31T10:33:23.661Z,10.64
2018-12-31T10:34:23.680Z,10.63
2018-12-31T10:35:23.696Z,10.56
2018-12-31T10:36:23.715Z,10.60
2018-12-31T10:37:23.731Z,10.57
2018-12-31T10:38:23.751Z,10.64
2018-12-31T10:39:23.767Z,10.69
2018-12-31T10:40:23.783Z,10.68
2018-12-31T10:41:23.799Z,10.71
2018-12-31T10:42:23.817Z,10.69
2018-12-31T10:43:23.834Z,10.64
2018-12-31T10:44:23.851Z,10.74
2018-12-31T10:45:23.869Z,10.64
2018-12-31T10:46:23.888Z,10.67
2018-12-31T10:47:23.908Z,10.74
2018-12-31T10:48:23.921Z,10.74
2018-12-31T10:49:23.941Z,10.72
2018-12-31T10:50:23.957Z,10.72
2018-12-31T10:51:23.978Z,10.69
2018-12-31T10:52:23.991Z,10.72
2018-12-31T10:53:24.010Z,10.76
2018-12-31T10:54:24.027Z,10.79
2018-12-31T10:55:24.045Z,10.76
2018-12-31T10:56:24.065Z,10.76
2018-12-31T10:57:24.085Z,10.72
2018-12-31T10:58:24.100Z,10.78
2018-12-31T10:59:24.116Z,10.76
2018-12-31T11:00:24.132Z,10.75
2018-12-31T11:01:24.153Z,10.76
2018-12-31T11:02:24.169Z,10.75
2018-12-31T11:03:24.188Z,10.79
2018-12-31T11:04:24.202Z,10.76
2018-12-31T11:05:24.222Z,10.86
2018-12-31T11:06:24.238Z,10.75
2018-12-31T11:07:24.255Z,10.76
2018-12-31T11:08:24.273Z,10.71
2018-12-31T11:09:24.293Z,10.75
2018-12-31T11:10:24.312Z,10.82
2018-12-31T11:11:24.328Z,10.75
2018-12-31T11:12:24.345Z,10.75
2018-12-31T11:13:24.363Z,10.75
2018-12-31T11:14:24.379Z,10.71
2018-12-31T11:15:24.399Z,10.75
2018-12-31T11:16:24.414Z,10.72
2018-12-31T11:17:24.433Z,10.81
2018-12-31T11:18:24.449Z,10.89
2018-12-31T11:19:24.471Z,10.90
2018-12-31T11:20:24.551Z,10.74
2018-12-31T11:21:24.505Z,10.75
2018-12-31T11:22:24.522Z,10.89
2018-12-31T11:23:24.540Z,10.90
2018-12-31T11:24:24.565Z,10.86
2018-12-31T11:25:24.577Z,10.89
2018-12-31T11:26:24.591Z,10.87
2018-12-31T11:27:24.612Z,10.94
2018-12-31T11:28:24.627Z,10.97
2018-12-31T11:29:24.650Z,11.04
2018-12-31T11:30:24.662Z,11.00
2018-12-31T11:31:30.204Z,10.92
2018-12-31T11:32:24.696Z,10.89
2018-12-31T11:33:24.818Z,10.94
2018-12-31T11:34:24.735Z,10.89
2018-12-31T11:35:24.751Z,10.90
2018-12-31T11:36:24.771Z,11.00
2018-12-31T11:37:24.788Z,10.92
2018-12-31T11:38:24.806Z,10.84
2018-12-31T11:39:24.822Z,10.92
2018-12-31T11:40:24.845Z,10.90
2018-12-31T11:41:24.860Z,10.86
2018-12-31T11:42:24.881Z,10.96
2018-12-31T11:43:24.893Z,10.87
2018-12-31T11:44:24.913Z,10.90
2018-12-31T11:45:24.927Z,10.99
2018-12-31T11:46:24.946Z,10.93
2018-12-31T11:47:24.967Z,10.99
2018-12-31T11:48:24.986Z,10.94
2018-12-31T11:49:25.012Z,10.93
2018-12-31T11:50:25.023Z,11.02
2018-12-31T11:51:25.038Z,10.99
2018-12-31T11:52:25.054Z,10.94
2018-12-31T11:53:25.070Z,10.90
2018-12-31T11:54:25.098Z,10.93
2018-12-31T11:55:25.106Z,10.90
2018-12-31T11:56:25.125Z,10.94
2018-12-31T11:57:25.142Z,10.94
2018-12-31T11:58:25.163Z,10.93
2018-12-31T11:59:25.179Z,10.94
2018-12-31T12:00:25.195Z,10.94
2018-12-31T12:01:25.217Z,10.87
2018-12-31T12:02:25.230Z,10.92
2018-12-31T12:03:25.249Z,10.92
2018-12-31T12:04:25.265Z,10.93
2018-12-31T12:05:25.287Z,10.96
2018-12-31T12:06:25.302Z,11.05
2018-12-31T12:07:25.317Z,11.00
2018-12-31T12:08:25.335Z,10.92
2018-12-31T12:09:25.357Z,11.04
2018-12-31T12:10:25.375Z,10.99
2018-12-31T12:11:25.389Z,11.00
2018-12-31T12:12:25.409Z,11.00
2018-12-31T12:13:25.423Z,10.99
2018-12-31T12:14:25.441Z,11.00
2018-12-31T12:15:25.462Z,10.89
2018-12-31T12:16:25.475Z,10.99
2018-12-31T12:17:25.493Z,10.94
2018-12-31T12:18:25.514Z,11.00
2018-12-31T12:19:25.530Z,11.00
2018-12-31T12:20:25.547Z,11.00
2018-12-31T12:21:25.568Z,10.93
2018-12-31T12:22:25.582Z,10.92
2018-12-31T12:23:25.629Z,10.92
2018-12-31T12:24:25.631Z,10.90
2018-12-31T12:25:25.638Z,10.99
2018-12-31T12:26:25.656Z,11.05
2018-12-31T12:27:25.674Z,11.04
2018-12-31T12:28:25.691Z,10.99
2018-12-31T12:29:25.706Z,10.99
2018-12-31T12:30:25.723Z,11.10
2018-12-31T12:31:25.743Z,11.04
2018-12-31T12:32:25.760Z,10.97
2018-12-31T12:33:25.778Z,10.94
2018-12-31T12:34:25.794Z,11.05
2018-12-31T12:35:25.812Z,11.11
2018-12-31T12:36:25.831Z,11.17
2018-12-31T12:37:25.847Z,10.99
2018-12-31T12:38:25.935Z,10.93
2018-12-31T12:39:25.883Z,10.93
2018-12-31T12:40:25.904Z,10.97
2018-12-31T12:41:25.918Z,11.02
2018-12-31T12:42:25.938Z,10.99
2018-12-31T12:43:25.954Z,10.92
2018-12-31T12:44:25.970Z,10.99
2018-12-31T12:45:25.990Z,10.97
2018-12-31T12:46:26.207Z,11.05
2018-12-31T12:47:26.024Z,11.10
2018-12-31T12:48:26.043Z,11.02
2018-12-31T12:49:26.217Z,10.99
2018-12-31T12:50:26.078Z,10.92
2018-12-31T12:51:26.095Z,11.00
2018-12-31T12:52:26.212Z,11.00
2018-12-31T12:53:26.130Z,11.04
2018-12-31T12:54:26.158Z,11.02
2018-12-31T12:55:26.216Z,10.93
2018-12-31T12:56:26.185Z,10.92
2018-12-31T12:57:26.201Z,10.93
2018-12-31T12:58:26.222Z,10.94
2018-12-31T12:59:26.236Z,10.96
2018-12-31T13:00:26.253Z,10.92
2018-12-31T13:01:26.273Z,10.94
2018-12-31T13:02:26.289Z,10.94
2018-12-31T13:03:26.307Z,11.00
2018-12-31T13:04:26.326Z,10.94
2018-12-31T13:05:26.341Z,10.94
2018-12-31T13:06:26.363Z,10.94